Tiempo atmosférico en la estación meteorológica de L?Estartit, Girona (1 m.)



Fecha
DESCASC
Temp. máxima en grados centígrados (hora)
DESCASC
Temp. mínima en grados centígrados (hora)
DESCASC
Temp. media en grados centígrados
DESCASC
Racha de viento máxima en m/sg (hora)
DESCASC
Velocidad máxima media en intervalos de 10 minutos(hora)
DESCASC
Precipitaciones diarias en mm
DESCASC
Precipitaciones de 00:00 a 06:00 en mm
DESCASC
Precipitaciones de 06:00 a 12:00 en mm
DESCASC
Precipitaciones de 12:00 a 18:00 en mm
DESCASC
Precipitaciones de 18:00 a 24:00 en mm
DESCASC

Gráficas

Temp. máximas Temp. mínimas Temp. medias Precipitaciones Rachas de viento máximas Velocidades máximas media en intervalos de 10 minutos

Datos horarios

Fecha y hora oficial Temperatura (ºC) Velocidad del viento (km/h) Dirección del viento Racha (km/h) Dirección de racha Precipitación (mm) Presión (hPa) Tendencia (hPa) Humedad (%)
2019-12-10 23:00:00 7.5 5 Oeste 18 Noroeste 0 -- -- 73
2019-12-10 22:00:00 8.9 9 Noroeste 17 Noroeste 0 -- -- 66
2019-12-10 21:00:00 8.8 7 Noroeste 13 Noroeste 0 -- -- 64
2019-12-10 20:00:00 10.4 8 Noroeste 17 Nordeste 0 -- -- 58
2019-12-10 19:00:00 11.6 6 Norte 17 Nordeste 0 -- -- 56
2019-12-10 18:00:00 12.8 12 Norte 19 Norte 0 -- -- 51
2019-12-10 17:00:00 13.5 5 Este 23 Norte 0 -- -- 52
2019-12-10 16:00:00 14.7 12 Nordeste 20 Noroeste 0 -- -- 54
2019-12-10 15:00:00 15.7 12 Nordeste 24 Nordeste 0 -- -- 47
2019-12-10 14:00:00 16.4 6 Sudeste 30 Nordeste 0 -- -- 46
2019-12-10 13:00:00 16.1 11 Norte 29 Noroeste 0 -- -- 36
2019-12-10 12:00:00 16.1 12 Nordeste 46 Noroeste 0 -- -- 29
2019-12-10 11:00:00 14.8 12 Norte 50 Noroeste 0 -- -- 33
2019-12-10 10:00:00 13.1 21 Noroeste 41 Noroeste 0 -- -- 45
2019-12-10 09:00:00 12.1 13 Noroeste 42 Noroeste 0 -- -- 49
2019-12-10 08:00:00 11.3 20 Noroeste 49 Oeste 0 -- -- 49
2019-12-10 07:00:00 11.4 23 Noroeste 59 Noroeste 0 -- -- 53
2019-12-10 06:00:00 11.2 18 Noroeste 48 Noroeste 0 -- -- 55
2019-12-10 05:00:00 11.3 22 Noroeste 67 Norte 0 -- -- 54
2019-12-10 04:00:00 11.5 24 Noroeste 56 Noroeste 0 -- -- 53
2019-12-10 03:00:00 11.6 15 Noroeste 45 Norte 0 -- -- 54
2019-12-10 02:00:00 11.5 17 Noroeste 44 Norte 0 -- -- 55
2019-12-10 01:00:00 11.8 15 Noroeste 41 Norte 0 -- -- 54
2019-12-10 00:00:00 12 17 Noroeste 58 Norte 0 -- -- 54
2019-12-09 23:00:00 11.8 17 Noroeste 45 Noroeste 0 -- -- 57
2019-12-09 22:00:00 11.8 23 Noroeste 58 Noroeste 0 -- -- 56
2019-12-09 21:00:00 12.4 14 Noroeste 51 Norte 0 -- -- 55
2019-12-09 20:00:00 12.1 18 Noroeste 49 Noroeste 0 -- -- 61
2019-12-09 19:00:00 12.9 13 Noroeste 40 Noroeste 0 -- -- 47
2019-12-09 18:00:00 13.2 17 Noroeste 39 Norte 0 -- -- 56
2019-12-09 17:00:00 14.5 8 Norte 23 Noroeste 0 -- -- 60
2019-12-09 16:00:00 15.2 8 Este 12 Este 0 -- -- 65
2019-12-09 15:00:00 15.4 4 Nordeste 8 Sudeste 0 -- -- 69
2019-12-09 14:00:00 15.3 2 Oeste 15 Norte 0 -- -- 67
2019-12-09 13:00:00 14.7 8 Nordeste 18 Oeste 0 -- -- 68
2019-12-09 12:00:00 14.7 11 Oeste 18 Oeste 0 -- -- 69
2019-12-09 11:00:00 13.3 7 Noroeste 19 Norte 0 -- -- 71
2019-12-09 10:00:00 11.9 8 Oeste 15 Sudoeste 0 -- -- 84
2019-12-09 09:00:00 9.1 6 Noroeste 18 Noroeste 0 -- -- 91
2019-12-09 08:00:00 8.2 6 Oeste 21 Noroeste 0 -- -- 89
2019-12-09 07:00:00 8.3 15 Noroeste 25 Noroeste 0 -- -- 91
2019-12-09 06:00:00 8.8 6 Oeste 13 Noroeste 0 -- -- 90
2019-12-09 05:00:00 9.4 6 Norte 14 Norte 0 -- -- 93
2019-12-09 04:00:00 8.9 3 Noroeste 11 Oeste 0 -- -- 91
2019-12-09 03:00:00 9.3 6 Oeste 16 Noroeste 0 -- -- 89
2019-12-09 02:00:00 10.4 11 Noroeste 22 Noroeste 0 -- -- 90
2019-12-09 01:00:00 9.7 2 Oeste 10 Sudoeste 0 -- -- 92
2019-12-09 00:00:00 10.4 4 Oeste 16 Noroeste 0 -- -- 91
2019-12-08 23:00:00 10.3 2 Noroeste 13 Noroeste 0 -- -- 92
2019-12-08 22:00:00 10.1 5 Oeste 12 Noroeste 0 -- -- 91
2019-12-08 21:00:00 10.8 3 Oeste 9 Oeste 0 -- -- 90
2019-12-08 20:00:00 11.2 4 Noroeste 9 Oeste 0 -- -- 88
2019-12-08 19:00:00 11.7 0 Calma 8 Noroeste 0 -- -- 88
2019-12-08 18:00:00 12 4 Noroeste 7 Norte 0 -- -- 87
2019-12-08 17:00:00 14 3 Noroeste 6 Noroeste 0 -- -- 79
2019-12-08 16:00:00 15.3 4 Este 9 Sudeste 0 -- -- 76
2019-12-08 15:00:00 15.3 4 Este 12 Este 0 -- -- 74
2019-12-08 14:00:00 15.2 4 Sudeste 9 Este 0 -- -- 74
2019-12-08 13:00:00 15.1 5 Sudeste 8 Sudeste 0 -- -- 75
2019-12-08 12:00:00 13.3 0 Calma 4 Este 0 -- -- 84
2019-12-08 11:00:00 10.3 0 Calma 4 Oeste 0 -- -- 92
2019-12-08 10:00:00 8 3 Oeste 9 Sudoeste 0 -- -- 94
2019-12-08 09:00:00 6.3 5 Oeste 15 Oeste 0 -- -- 93
2019-12-08 08:00:00 5.6 3 Oeste 6 Noroeste 0 -- -- 92
2019-12-08 07:00:00 8.5 9 Noroeste 13 Noroeste 0 -- -- 93
2019-12-08 06:00:00 8.4 6 Noroeste 9 Noroeste 0 -- -- 94
2019-12-08 05:00:00 8 2 Noroeste 10 Noroeste 0 -- -- 94
2019-12-08 04:00:00 7.3 0 Calma 9 Oeste 0 -- -- 94
2019-12-08 03:00:00 7.6 4 Oeste 10 Oeste 0 -- -- 94
2019-12-08 02:00:00 7 7 Oeste 12 Oeste 0 -- -- 93
2019-12-08 01:00:00 7.4 3 Oeste 10 Oeste 0 -- -- 92
2019-12-08 00:00:00 8.2 5 Oeste 11 Oeste 0 -- -- 92
2019-12-07 23:00:00 8.4 2 Oeste 11 Oeste 0 -- -- 91
2019-12-07 22:00:00 10.3 7 Noroeste 14 Noroeste 0 -- -- 90
2019-12-07 21:00:00 10.4 5 Noroeste 11 Noroeste 0 -- -- 88
2019-12-07 20:00:00 11.2 5 Norte 8 Noroeste 0 -- -- 87
2019-12-07 19:00:00 11.4 8 Noroeste 10 Noroeste 0 -- -- 85
2019-12-07 18:00:00 12.2 4 Noroeste 8 Noroeste 0 -- -- 81
2019-12-07 17:00:00 15.1 6 Sur 14 Sudeste 0 -- -- 72
2019-12-07 16:00:00 15.7 9 Sudeste 13 Sudeste 0 -- -- 70
2019-12-07 15:00:00 15.9 7 Sudeste 10 Sudeste 0 -- -- 66
2019-12-07 14:00:00 16 6 Sur 8 Sur 0 -- -- 64
2019-12-07 13:00:00 16.1 4 Sudeste 9 Oeste 0 -- -- 61
2019-12-07 12:00:00 14.6 0 Calma 8 Sudoeste 0 -- -- 67
2019-12-07 11:00:00 11.4 5 Sudoeste 9 Sudoeste 0 -- -- 82
2019-12-07 10:00:00 8.9 3 Sudoeste 6 Sudoeste 0 -- -- 92
2019-12-07 09:00:00 6.2 0 Calma 7 Oeste 0 -- -- 94
2019-12-07 08:00:00 5.8 4 Oeste 10 Oeste 0 -- -- 93
2019-12-07 07:00:00 5.8 3 Oeste 8 Sudoeste 0 -- -- 92
2019-12-07 06:00:00 6.3 3 Noroeste 13 Oeste 0 -- -- 92
2019-12-07 05:00:00 7 6 Oeste 13 Oeste 0 -- -- 92
2019-12-07 04:00:00 6.8 4 Sudoeste 8 Oeste 0 -- -- 91
2019-12-07 03:00:00 7.3 4 Oeste 8 Noroeste 0 -- -- 91
2019-12-07 02:00:00 7.8 3 Oeste 14 Noroeste 0 -- -- 89
2019-12-07 01:00:00 8.7 4 Noroeste 9 Noroeste 0 -- -- 87
2019-12-07 00:00:00 9.9 4 Noroeste 12 Noroeste 0 -- -- 87
2019-12-06 23:00:00 10.3 3 Noroeste 11 Oeste 0 -- -- 85
2019-12-06 22:00:00 9.9 4 Noroeste 6 Oeste 0 -- -- 86
2019-12-06 21:00:00 10.7 5 Noroeste 10 Noroeste 0 -- -- 83
2019-12-06 20:00:00 10.3 5 Noroeste 8 Noroeste 0 -- -- 85
2019-12-06 19:00:00 10.8 4 Norte 8 Noroeste 0 -- -- 83
2019-12-06 18:00:00 11.7 6 Noroeste 8 Noroeste 0 -- -- 80
2019-12-06 17:00:00 14.5 4 Nordeste 9 Sudeste 0 -- -- 68
2019-12-06 16:00:00 15.3 4 Este 17 Sudeste 0 -- -- 64
2019-12-06 15:00:00 15.2 10 Sudeste 21 Sudeste 0 -- -- 65
2019-12-06 14:00:00 14.9 9 Nordeste 16 Nordeste 0 -- -- 66
2019-12-06 13:00:00 14.8 10 Nordeste 17 Este 0 -- -- 60
2019-12-06 12:00:00 14.6 4 Sur 12 Este 0 -- -- 67
2019-12-06 11:00:00 13.1 4 Sudoeste 15 Noroeste 0 -- -- 71
2019-12-06 10:00:00 11.3 5 Oeste 11 Noroeste 0 -- -- 79
2019-12-06 09:00:00 10.7 6 Noroeste 14 Noroeste 0 -- -- 76
2019-12-06 08:00:00 9.6 8 Noroeste 15 Noroeste 0 -- -- 75
2019-12-06 07:00:00 10.2 4 Noroeste 10 Norte 0 -- -- 74
2019-12-06 06:00:00 10.3 8 Noroeste 17 Noroeste 0 -- -- 73
2019-12-06 05:00:00 12.4 6 Noroeste 13 Norte 0 -- -- 66
2019-12-06 04:00:00 13 9 Noroeste 14 Noroeste 0 -- -- 66
2019-12-06 03:00:00 13.3 6 Noroeste 14 Noroeste 0 -- -- 61
2019-12-06 02:00:00 13.2 6 Noroeste 13 Norte 0 -- -- 63
2019-12-06 01:00:00 13.5 5 Noroeste 14 Noroeste 0 -- -- 60
2019-12-06 00:00:00 13.1 5 Noroeste 18 Noroeste 0 -- -- 64
2019-12-05 23:00:00 12.1 5 Noroeste 15 Noroeste 0 -- -- 76
2019-12-05 22:00:00 11.2 9 Noroeste 16 Noroeste 0 -- -- 80
2019-12-05 21:00:00 11.3 10 Noroeste 19 Noroeste 0 -- -- 80
2019-12-05 20:00:00 12.3 6 Noroeste 19 Norte 0.2 -- -- 77
2019-12-05 19:00:00 12.2 6 Noroeste 20 Noroeste 0 -- -- 76
2019-12-05 18:00:00 12.4 7 Noroeste 18 Noroeste 0 -- -- 75
2019-12-05 17:00:00 12.6 8 Noroeste 25 Noroeste 0 -- -- 76
2019-12-05 16:00:00 12.2 12 Noroeste 23 Noroeste 0.2 -- -- 76
2019-12-05 15:00:00 11.8 9 Noroeste 27 Noroeste 0.4 -- -- 81
2019-12-05 14:00:00 11.3 12 Noroeste 33 Norte 0.4 -- -- 82
2019-12-05 13:00:00 11.9 13 Noroeste 33 Noroeste 0 -- -- 82
2019-12-05 12:00:00 11.7 14 Noroeste 38 Norte 1.8 -- -- 86
2019-12-05 11:00:00 11.4 10 Noroeste 29 Noroeste 0.8 -- -- 82
2019-12-05 10:00:00 11.4 12 Noroeste 30 Norte 1.8 -- -- 85
2019-12-05 09:00:00 11.3 12 Noroeste 31 Noroeste 2.2 -- -- 88
2019-12-05 08:00:00 11.6 10 Noroeste 24 Norte 1.4 -- -- 89
2019-12-05 07:00:00 11 13 Noroeste 28 Noroeste 2.4 -- -- 91
2019-12-05 06:00:00 11 13 Noroeste 33 Norte 4.8 -- -- 92
2019-12-05 05:00:00 11.3 9 Noroeste 24 Nordeste 6 -- -- 94
2019-12-05 04:00:00 11 10 Noroeste 29 Norte 6.6 -- -- 94
2019-12-05 03:00:00 11.5 12 Nordeste 34 Noroeste 7.8 -- -- 94
2019-12-05 02:00:00 11.5 11 Norte 35 Norte 8.4 -- -- 94
2019-12-05 01:00:00 11.6 11 Nordeste 33 Nordeste 7.2 -- -- 94
2019-12-05 00:00:00 12.7 12 Nordeste 48 Este 7.6 -- -- 94
2019-12-04 23:00:00 12.7 14 Sudeste 46 Este 8.6 -- -- 91
2019-12-04 22:00:00 13 26 Este 58 Este 4.6 -- -- 88
2019-12-04 21:00:00 13.3 20 Este 55 Este 1.8 -- -- 88
2019-12-04 20:00:00 13.5 29 Este 54 Este 1 -- -- 83
2019-12-04 19:00:00 13.8 28 Este 58 Este 0.8 -- -- 81
2019-12-04 18:00:00 14.2 31 Este 62 Este 0.2 -- -- 76
2019-12-04 17:00:00 14.7 31 Este 60 Este 0 -- -- 74
2019-12-04 16:00:00 14.3 31 Este 58 Este 0 -- -- 77
2019-12-04 15:00:00 13.9 28 Sudeste 65 Sudeste 0.4 -- -- 81
2019-12-04 14:00:00 14 24 Este 64 Este 0 -- -- 79
2019-12-04 13:00:00 14.2 28 Este 55 Este 0 -- -- 76
2019-12-04 12:00:00 14.2 28 Este 56 Este 0 -- -- 76
2019-12-04 11:00:00 14.3 28 Este 52 Este 0 -- -- 76
2019-12-04 10:00:00 14.2 28 Este 60 Este 0 -- -- 76
2019-12-04 09:00:00 14.1 28 Este 57 Este 0 -- -- 75
2019-12-04 08:00:00 14.1 28 Este 50 Este 0 -- -- 76
2019-12-04 07:00:00 14.1 26 Este 47 Este 0 -- -- 77
2019-12-04 06:00:00 13.8 23 Sudeste 49 Este 0 -- -- 79
2019-12-04 05:00:00 14.2 23 Este 51 Sudeste 0 -- -- 76
2019-12-04 04:00:00 14.3 23 Este 53 Este 0 -- -- 76
2019-12-04 03:00:00 14.3 19 Este 49 Este 0 -- -- 77
2019-12-04 02:00:00 14.4 18 Sudeste 43 Este 0 -- -- 77
2019-12-04 01:00:00 13 14 Norte 32 Nordeste 0 -- -- 81
2019-12-04 00:00:00 13.1 10 Norte 31 Nordeste 0 -- -- 79
2019-12-03 23:00:00 13 8 Norte 27 Norte 0 -- -- 78
2019-12-03 22:00:00 13 6 Norte 26 Norte 0 -- -- 77
2019-12-03 21:00:00 12.7 8 Noroeste 22 Norte 0 -- -- 77
2019-12-03 20:00:00 12.1 10 Noroeste 26 Norte 0 -- -- 75
2019-12-03 19:00:00 12 7 Noroeste 23 Nordeste 0 -- -- 75
2019-12-03 18:00:00 11.8 9 Noroeste 31 Noroeste 0 -- -- 73
2019-12-03 17:00:00 12 8 Noroeste 23 Norte 0 -- -- 71
2019-12-03 16:00:00 11.7 8 Norte 24 Nordeste 0 -- -- 68
2019-12-03 15:00:00 11.6 11 Norte 33 Nordeste 0 -- -- 66
2019-12-03 14:00:00 12 9 Norte 29 Nordeste 0 -- -- 66
2019-12-03 13:00:00 11.8 10 Nordeste 27 Norte 0 -- -- 65
2019-12-03 12:00:00 11.3 10 Norte 25 Norte 0 -- -- 62
2019-12-03 11:00:00 11.4 9 Norte 21 Norte 0 -- -- 59
2019-12-03 10:00:00 11 8 Noroeste 23 Norte 0 -- -- 56
2019-12-03 09:00:00 10.1 9 Noroeste 26 Noroeste 0 -- -- 56
2019-12-03 08:00:00 9.9 6 Noroeste 26 Noroeste 0 -- -- 58
2019-12-03 07:00:00 10 9 Noroeste 30 Norte 0 -- -- 63
2019-12-03 06:00:00 10.2 9 Noroeste 27 Norte 0 -- -- 63
2019-12-03 05:00:00 10.4 10 Noroeste 24 Noroeste 0 -- -- 63
2019-12-03 04:00:00 7.9 7 Noroeste 15 Noroeste 0 -- -- 70
2019-12-03 03:00:00 7.6 8 Noroeste 15 Noroeste 0 -- -- 70
2019-12-03 02:00:00 8 7 Noroeste 15 Noroeste 0 -- -- 70
2019-12-03 01:00:00 8.5 9 Noroeste 15 Noroeste 0 -- -- 69
2019-12-03 00:00:00 9.3 6 Noroeste 19 Oeste 0 -- -- 66
2019-12-02 23:00:00 11.2 11 Noroeste 23 Norte 0 -- -- 60
2019-12-02 22:00:00 11.2 9 Noroeste 24 Noroeste 0 -- -- 59
2019-12-02 21:00:00 11.8 10 Noroeste 27 Norte 0 -- -- 57
2019-12-02 20:00:00 12.1 7 Noroeste 20 Norte 0 -- -- 56
2019-12-02 19:00:00 11.3 7 Noroeste 14 Oeste 0 -- -- 61
2019-12-02 18:00:00 12.1 7 Noroeste 15 Noroeste 0 -- -- 59
2019-12-02 17:00:00 14.2 6 Noroeste 19 Noroeste 0 -- -- 52
2019-12-02 16:00:00 15.2 5 Noroeste 22 Norte 0 -- -- 49
2019-12-02 15:00:00 16 8 Noroeste 28 Nordeste 0 -- -- 48
2019-12-02 14:00:00 16.8 8 Noroeste 27 Norte 0 -- -- 47
2019-12-02 13:00:00 15.5 10 Norte 27 Norte 0 -- -- 52
2019-12-02 12:00:00 15.8 8 Nordeste 21 Nordeste 0 -- -- 50
2019-12-02 11:00:00 15.5 8 Noroeste 25 Noroeste 0 -- -- 49
2019-12-02 10:00:00 14.7 6 Noroeste 27 Noroeste 0 -- -- 51
2019-12-02 09:00:00 13.7 8 Noroeste 23 Oeste 0 -- -- 53
2019-12-02 08:00:00 13.2 8 Noroeste 24 Noroeste 0 -- -- 54
2019-12-02 07:00:00 12.2 9 Noroeste 19 Noroeste 0 -- -- 60
2019-12-02 06:00:00 11.5 8 Noroeste 17 Noroeste 0 -- -- 62
2019-12-02 05:00:00 10.8 6 Noroeste 13 Oeste 0 -- -- 65
2019-12-02 04:00:00 12.9 7 Oeste 20 Norte 0 -- -- 59
2019-12-02 03:00:00 12.5 7 Oeste 17 Noroeste 0 -- -- 66
2019-12-02 02:00:00 12.4 6 Noroeste 16 Oeste 0 -- -- 65
2019-12-02 01:00:00 10.4 5 Oeste 9 Oeste 0 -- -- 74
2019-12-02 00:00:00 10.5 2 Noroeste 14 Noroeste 0 -- -- 75
2019-12-01 23:00:00 10.6 7 Noroeste 13 Norte 0 -- -- 80
2019-12-01 22:00:00 11.7 5 Noroeste 10 Noroeste 0 -- -- 79
2019-12-01 21:00:00 11.6 5 Norte 8 Norte 0 -- -- 77
2019-12-01 20:00:00 12.2 5 Norte 9 Noroeste 0 -- -- 76
2019-12-01 19:00:00 12.5 4 Noroeste 11 Noroeste 0 -- -- 77
2019-12-01 18:00:00 12.8 6 Norte 12 Nordeste 0 -- -- 78
2019-12-01 17:00:00 14.1 5 Nordeste 16 Norte 0 -- -- 75
2019-12-01 16:00:00 14.3 10 Nordeste 22 Nordeste 0 -- -- 74
2019-12-01 15:00:00 14.9 5 Nordeste 18 Nordeste 0 -- -- 73
2019-12-01 14:00:00 14.7 9 Nordeste 15 Nordeste 0 -- -- 73
2019-12-01 13:00:00 13.7 3 Noroeste 15 Noroeste 0 -- -- 84
2019-12-01 12:00:00 12.8 6 Noroeste 13 Noroeste 0 -- -- 87
2019-12-01 11:00:00 12.1 4 Noroeste 12 Oeste 0 -- -- 90
2019-12-01 10:00:00 12 4 Noroeste 15 Norte 0 -- -- 90
2019-12-01 09:00:00 11.9 3 Oeste 8 Oeste 0.4 -- -- 92
2019-12-01 08:00:00 11.9 0 Calma 8 Norte 0.2 -- -- 92
2019-12-01 07:00:00 11.5 7 Noroeste 13 Noroeste 0 -- -- 92
2019-12-01 06:00:00 11.8 4 Noroeste 15 Oeste 0.4 -- -- 91
2019-12-01 05:00:00 12.3 8 Noroeste 24 Norte 0.4 -- -- 89
2019-12-01 04:00:00 13.3 12 Norte 27 Nordeste 0 -- -- 87
2019-12-01 03:00:00 14.2 10 Nordeste 24 Nordeste 0 -- -- 85
2019-12-01 02:00:00 14.7 8 Nordeste 22 Nordeste 0 -- -- 86
2019-12-01 01:00:00 14.3 8 Nordeste 19 Norte 0 -- -- 89
2019-12-01 00:00:00 13.2 4 Norte 9 Norte 0 -- -- 91
2019-11-30 23:00:00 13.2 5 Noroeste 11 Noroeste 0 -- -- 89
2019-11-30 22:00:00 14.2 5 Noroeste 16 Sudoeste 0 -- -- 87
2019-11-30 21:00:00 14.9 3 Sur 18 Sur 0 -- -- 87
2019-11-30 20:00:00 15.2 7 Sur 16 Sudoeste 0 -- -- 86
2019-11-30 19:00:00 15.4 5 Sudoeste 17 Sudoeste 0 -- -- 83
2019-11-30 18:00:00 15.5 14 Sudoeste 27 Sudoeste 0 -- -- 80
2019-11-30 17:00:00 16.9 12 Sudoeste 24 Sudoeste 0 -- -- 74
2019-11-30 16:00:00 17.4 16 Sur 24 Sur 0 -- -- 75
2019-11-30 15:00:00 17.8 12 Sudeste 18 Sur 0 -- -- 74
2019-11-30 14:00:00 17.6 12 Sur 22 Sur 0 -- -- 75
2019-11-30 13:00:00 17.2 13 Sur 27 Sur 0 -- -- 78
2019-11-30 12:00:00 16.6 17 Sur 24 Sur 0 -- -- 80
2019-11-30 11:00:00 16.5 8 Sur 13 Sur 0 -- -- 83
2019-11-30 10:00:00 14.6 5 Oeste 10 Oeste 0 -- -- 85
2019-11-30 09:00:00 13.4 0 Calma 9 Sudoeste 0 -- -- 88
2019-11-30 08:00:00 13 4 Oeste 8 Oeste 0 -- -- 89
2019-11-30 07:00:00 12.3 0 Calma -- -- 0 -- -- 88
2019-11-30 06:00:00 12.6 0 Calma 4 Oeste 0 -- -- 87
2019-11-30 05:00:00 12.7 3 Oeste 6 Oeste 0 -- -- 87
2019-11-30 04:00:00 12.5 0 Calma 4 Sudoeste 0 -- -- 87
2019-11-30 03:00:00 12.5 0 Calma 4 Oeste 0 -- -- 87
2019-11-30 02:00:00 12.4 2 Oeste 7 Noroeste 0 -- -- 85
2019-11-30 01:00:00 12.8 2 Noroeste 9 Noroeste 0 -- -- 83
2019-11-30 00:00:00 13 5 Noroeste 9 Noroeste 0 -- -- 81
2019-11-29 23:00:00 14 2 Noroeste 7 Noroeste 0 -- -- 79
2019-11-29 22:00:00 14.9 5 Norte 9 Noroeste 0 -- -- 78
2019-11-29 21:00:00 14.7 6 Noroeste 11 Noroeste 0 -- -- 74
2019-11-29 20:00:00 15 7 Noroeste 11 Noroeste 0 -- -- 71
2019-11-29 19:00:00 15 4 Oeste 12 Oeste 0 -- -- 74
2019-11-29 18:00:00 14.8 3 Noroeste 6 Noroeste 0 -- -- 75
2019-11-29 17:00:00 15.5 0 Calma 6 Sur 0 -- -- 76
2019-11-29 16:00:00 15.7 3 Sur 6 Sudeste 0 -- -- 76
2019-11-29 15:00:00 16 5 Sudeste 9 Sudeste 0 -- -- 72
2019-11-29 14:00:00 16.3 6 Sudeste 10 Sudeste 0 -- -- 70
2019-11-29 13:00:00 16.4 0 Calma 6 Sudeste 0 -- -- 69
2019-11-29 12:00:00 17 3 Sudeste 7 Sur 0 -- -- 65
2019-11-29 11:00:00 16 4 Sudeste 8 Oeste 0 -- -- 71
2019-11-29 10:00:00 14.5 4 Oeste 19 Noroeste 0 -- -- 72
2019-11-29 09:00:00 12.4 9 Noroeste 20 Noroeste 0 -- -- 79
2019-11-29 08:00:00 11.6 10 Noroeste 18 Noroeste 0 -- -- 83
2019-11-29 07:00:00 10.8 5 Noroeste 10 Noroeste 0 -- -- 87
2019-11-29 06:00:00 10.5 4 Noroeste 10 Oeste 0 -- -- 87
2019-11-29 05:00:00 11.4 4 Noroeste 10 Oeste 0 -- -- 86
2019-11-29 04:00:00 10.9 4 Oeste 8 Oeste 0 -- -- 86
2019-11-29 03:00:00 11.6 2 Oeste 13 Norte 0 -- -- 83
2019-11-29 02:00:00 11.9 8 Noroeste 14 Noroeste 0 -- -- 82
2019-11-29 01:00:00 12.3 10 Noroeste 22 Noroeste 0 -- -- 82
2019-11-29 00:00:00 12.2 9 Noroeste 21 Oeste 0 -- -- 87
2019-11-28 23:00:00 12.5 12 Noroeste 23 Oeste 0 -- -- 86
2019-11-28 22:00:00 14.1 5 Noroeste 9 Noroeste 0 -- -- 78
2019-11-28 21:00:00 14.6 6 Oeste 10 Oeste 0 -- -- 80
2019-11-28 20:00:00 14 6 Oeste 10 Oeste 0 -- -- 85
2019-11-28 19:00:00 14.8 3 Sur 10 Sudeste 0 -- -- 84
2019-11-28 18:00:00 14.9 6 Sudeste 10 Sudeste 0 -- -- 82
2019-11-28 17:00:00 15.2 5 Este 14 Este 0 -- -- 79
2019-11-28 16:00:00 16.5 8 Este 14 Este 0 -- -- 71
2019-11-28 15:00:00 16.8 8 Sudeste 15 Sudeste 0 -- -- 69
2019-11-28 14:00:00 17 7 Este 12 Este 0 -- -- 65
2019-11-28 13:00:00 17.3 5 Sudeste 12 Sudeste 0 -- -- 62
2019-11-28 12:00:00 16.9 8 Oeste 16 Oeste 0 -- -- 57
2019-11-28 11:00:00 16.5 6 Sudoeste 13 Oeste 0 -- -- 58
2019-11-28 10:00:00 14.7 3 Oeste 16 Oeste 0 -- -- 66
2019-11-28 09:00:00 12 6 Oeste 12 Oeste 0 -- -- 78
2019-11-28 08:00:00 9.5 0 Calma 12 Oeste 0 -- -- 86
2019-11-28 07:00:00 10.7 4 Oeste 15 Noroeste 0 -- -- 79
2019-11-28 06:00:00 11.1 9 Noroeste 16 Norte 0 -- -- 82
2019-11-28 05:00:00 11.4 5 Noroeste 13 Noroeste 0 -- -- 84
2019-11-28 04:00:00 12.5 7 Noroeste 18 Noroeste 0 -- -- 84
2019-11-28 03:00:00 12 4 Oeste 13 Oeste 0 -- -- 89
2019-11-28 02:00:00 11.7 4 Sudoeste 11 Noroeste 0 -- -- 89
2019-11-28 01:00:00 11.6 4 Oeste 12 Oeste 0 -- -- 88
2019-11-28 00:00:00 12.3 3 Sudoeste 12 Oeste 0 -- -- 86
2019-11-27 23:00:00 12.8 10 Noroeste 18 Noroeste 0 -- -- 85
2019-11-27 22:00:00 12.9 5 Oeste 10 Oeste 0 -- -- 83
2019-11-27 21:00:00 14.3 0 Calma 8 Nordeste 0 -- -- 81
2019-11-27 20:00:00 14.5 5 Nordeste 10 Norte 0 -- -- 80
2019-11-27 19:00:00 14.5 5 Noroeste 8 Noroeste 0 -- -- 73
2019-11-27 18:00:00 15.1 3 Oeste 8 Sudoeste 0 -- -- 70
2019-11-27 17:00:00 15.5 6 Sur 13 Sur 0 -- -- 74
2019-11-27 16:00:00 15.8 10 Sur 15 Sur 0 -- -- 76
2019-11-27 15:00:00 15.8 11 Sur 17 Sur 0 -- -- 74
2019-11-27 14:00:00 16.5 10 Sur 16 Sur 0 -- -- 74
2019-11-27 06:00:00 -- -- -- -- -- -- -- -- --
2019-11-27 05:00:00 -- -- -- -- -- -- -- -- --
2019-11-27 04:00:00 14.2 4 Oeste 12 Sudoeste 0 -- -- 79
2019-11-27 03:00:00 15.1 8 Oeste 15 Sudoeste 0 -- -- 76
2019-11-27 02:00:00 16.3 5 Oeste 19 Oeste 0 -- -- 68
2019-11-27 01:00:00 15.7 4 Oeste 15 Sudoeste 0 -- -- 69
2019-11-27 00:00:00 15.8 6 Oeste 15 Oeste 0 -- -- 67
2019-11-26 23:00:00 15.6 9 Oeste 21 Sudoeste 0 -- -- 66
2019-11-26 22:00:00 15.3 9 Oeste 22 Sudoeste 0 -- -- 69
2019-11-26 21:00:00 15.5 9 Oeste 18 Oeste 0 -- -- 70
2019-11-26 20:00:00 13.8 3 Noroeste 7 Oeste 0 -- -- 81
2019-11-26 19:00:00 14.6 3 Oeste 10 Noroeste 0 -- -- 78
2019-11-26 18:00:00 15 4 Oeste 8 Oeste 0 -- -- 79
2019-11-26 17:00:00 16.2 0 Calma 4 Norte 0 -- -- 74
2019-11-26 16:00:00 16.9 0 Calma 9 Sudeste 0 -- -- 70
2019-11-26 15:00:00 17.5 6 Este 10 Este 0 -- -- 66
2019-11-26 14:00:00 16.4 9 Este 14 Nordeste 0 -- -- 68
2019-11-26 13:00:00 16.2 4 Sudeste 13 Sudeste 0 -- -- 66
2019-11-26 12:00:00 15.3 3 Sudeste 9 Sudeste 0 -- -- 67
2019-11-26 11:00:00 14.1 2 Sudeste 6 Oeste 0 -- -- 73
2019-11-26 10:00:00 9.5 0 Calma 4 Sudoeste 0 -- -- 87
2019-11-26 09:00:00 6.9 0 Calma 7 Oeste 0 -- -- 88
2019-11-26 08:00:00 7 4 Oeste 18 Noroeste 0 -- -- 86
2019-11-26 07:00:00 6.8 2 Noroeste 12 Oeste 0 -- -- 90
2019-11-26 06:00:00 6.7 3 Oeste 8 Sudoeste 0 -- -- 88
2019-11-26 05:00:00 7.5 4 Oeste 13 Noroeste 0 -- -- 85
2019-11-26 04:00:00 9.3 8 Noroeste 14 Noroeste 0 -- -- 89
2019-11-26 03:00:00 8.1 4 Oeste 8 Sudoeste 0 -- -- 87
2019-11-26 02:00:00 9.3 4 Noroeste 9 Noroeste 0 -- -- 86
2019-11-26 01:00:00 9.2 3 Oeste 9 Sudoeste 0 -- -- 86
2019-11-26 00:00:00 9.9 6 Oeste 12 Noroeste 0 -- -- 85
2019-11-25 23:00:00 10.5 2 Noroeste 13 Sudoeste 0 -- -- 83
2019-11-25 22:00:00 12.2 6 Noroeste 16 Oeste 0 -- -- 77
2019-11-25 21:00:00 12.4 6 Noroeste 13 Norte 0 -- -- 78
2019-11-25 20:00:00 11.5 3 Noroeste 10 Noroeste 0 -- -- 78
2019-11-25 19:00:00 12 5 Noroeste 10 Noroeste 0 -- -- 76
2019-11-25 18:00:00 12.9 6 Noroeste 9 Noroeste 0 -- -- 77
2019-11-25 17:00:00 15.2 3 Sudeste 12 Este 0 -- -- 71
2019-11-25 16:00:00 15.8 6 Este 12 Sudeste 0 -- -- 69
2019-11-25 15:00:00 16.5 5 Sudeste 8 Sudeste 0 -- -- 65
2019-11-25 14:00:00 16.4 6 Sudeste 10 Sudeste 0 -- -- 64
2019-11-25 13:00:00 17 5 Sudeste 9 Sudoeste 0 -- -- 58
2019-11-25 12:00:00 15.5 5 Sudoeste 8 Sudoeste 0 -- -- 64
2019-11-25 11:00:00 13.7 4 Sudeste 6 Nordeste 0 -- -- 73
2019-11-25 10:00:00 10.8 0 Calma 11 Oeste 0 -- -- 84
2019-11-25 09:00:00 7.9 6 Oeste 13 Oeste 0 -- -- 90
2019-11-25 08:00:00 6.7 9 Oeste 15 Noroeste 0 -- -- 91
2019-11-25 07:00:00 5.9 5 Oeste 11 Oeste 0 -- -- 91
2019-11-25 06:00:00 6.2 4 Oeste 14 Oeste 0 -- -- 90
2019-11-25 05:00:00 6.9 6 Oeste 9 Sudoeste 0 -- -- 87
2019-11-25 04:00:00 8.7 5 Oeste 19 Noroeste 0 -- -- 85
2019-11-25 03:00:00 8.7 10 Noroeste 19 Noroeste 0 -- -- 87
2019-11-25 02:00:00 8.8 10 Noroeste 15 Noroeste 0 -- -- 88
2019-11-25 01:00:00 8.3 2 Noroeste 8 Noroeste 0 -- -- 87
2019-11-25 00:00:00 9.1 3 Oeste 8 Oeste 0 -- -- 83
2019-11-24 23:00:00 10.6 4 Oeste 12 Noroeste 0 -- -- 81
2019-11-24 22:00:00 11.3 6 Noroeste 11 Noroeste 0 -- -- 74
2019-11-24 21:00:00 11.2 2 Noroeste 9 Noroeste 0 -- -- 67
2019-11-24 20:00:00 11.9 7 Noroeste 17 Oeste 0 -- -- 58
2019-11-24 19:00:00 13.6 6 Noroeste 18 Noroeste 0 -- -- 53
2019-11-24 18:00:00 13.9 7 Noroeste 18 Noroeste 0 -- -- 53
2019-11-24 17:00:00 15.5 10 Noroeste 22 Noroeste 0 -- -- 49
2019-11-24 16:00:00 16.9 8 Noroeste 22 Noroeste 0 -- -- 48
2019-11-24 15:00:00 17.4 10 Noroeste 26 Oeste 0 -- -- 45
2019-11-24 14:00:00 17.1 11 Noroeste 29 Noroeste 0 -- -- 46
2019-11-24 13:00:00 16.8 14 Noroeste 27 Noroeste 0 -- -- 46
2019-11-24 12:00:00 16.2 9 Noroeste 32 Noroeste 0 -- -- 46
2019-11-24 11:00:00 14.9 10 Noroeste 23 Noroeste 0 -- -- 51
2019-11-24 10:00:00 12.9 8 Noroeste 17 Norte 0 -- -- 56
2019-11-24 09:00:00 12.6 6 Noroeste 15 Noroeste 0 -- -- 55
2019-11-24 08:00:00 11.4 4 Noroeste 21 Noroeste 0 -- -- 59
2019-11-24 07:00:00 11.4 8 Noroeste 22 Noroeste 0 -- -- 63
2019-11-24 06:00:00 13.3 10 Noroeste 33 Noroeste 0 -- -- 51
2019-11-24 05:00:00 13.8 12 Noroeste 35 Noroeste 0 -- -- 48
2019-11-24 04:00:00 14.1 15 Noroeste 41 Norte 0 -- -- 48
2019-11-24 03:00:00 13.6 7 Noroeste 15 Noroeste 0 -- -- 47
2019-11-24 02:00:00 13.8 8 Noroeste 28 Noroeste 0 -- -- 43
2019-11-24 01:00:00 13.8 14 Noroeste 36 Norte 0 -- -- 48
2019-11-24 00:00:00 14 15 Noroeste 38 Noroeste 0 -- -- 50
2019-11-23 23:00:00 14.1 10 Noroeste 23 Noroeste 0 -- -- 55
2019-11-23 22:00:00 12.9 2 Norte 6 Noroeste 0 -- -- 76
2019-11-23 21:00:00 13 2 Sudoeste 15 Oeste 0 -- -- 69
2019-11-23 20:00:00 13.4 7 Noroeste 19 Oeste 0 -- -- 62
2019-11-23 19:00:00 13.8 5 Noroeste 18 Oeste 0 -- -- 62
2019-11-23 18:00:00 14.5 6 Noroeste 18 Noroeste 0 -- -- 61
2019-11-23 17:00:00 15.2 7 Noroeste 21 Noroeste 0 -- -- 62
2019-11-23 16:00:00 16.6 4 Oeste 27 Nordeste 0 -- -- 65
2019-11-23 15:00:00 16.8 11 Nordeste 24 Nordeste 0 -- -- 62
2019-11-23 14:00:00 17.5 4 Este 12 Oeste 0 -- -- 59
2019-11-23 13:00:00 16 6 Sur 12 Sur 0 -- -- 66
2019-11-23 12:00:00 15.2 4 Oeste 27 Sudoeste 0 -- -- 68
2019-11-23 11:00:00 15.7 11 Sudoeste 22 Sudoeste 0 -- -- 67
2019-11-23 10:00:00 15 6 Oeste 14 Oeste 0 -- -- 72
2019-11-23 09:00:00 13.3 8 Oeste 17 Oeste 0 -- -- 74
2019-11-23 08:00:00 12.2 4 Oeste 14 Oeste 0 -- -- 84
2019-11-23 07:00:00 12.7 7 Oeste 13 Oeste 0 -- -- 91
2019-11-23 06:00:00 13.2 4 Oeste 8 Oeste 0 -- -- 92
2019-11-23 05:00:00 14.1 5 Noroeste 11 Sudoeste 0 -- -- 92
2019-11-23 04:00:00 15.2 6 Sudoeste 31 Sur 0.4 -- -- 92
2019-11-23 03:00:00 15.7 21 Sur 41 Sur 1.4 -- -- 92
2019-11-23 02:00:00 15.6 34 Sur 54 Sur 2.2 -- -- 91
2019-11-23 01:00:00 15.7 29 Sur 50 Sudoeste 0.2 -- -- 90
2019-11-23 00:00:00 15.4 23 Sur 45 Sur 1.2 -- -- 91
2019-11-22 23:00:00 15.4 25 Sudoeste 58 Sur 3.8 -- -- 91
2019-11-22 22:00:00 15.9 28 Sur 46 Sudoeste 4.6 -- -- 91
2019-11-22 21:00:00 15.3 24 Sur 45 Sudeste 3.8 -- -- 91
2019-11-22 20:00:00 15.8 28 Sur 40 Sur 0.8 -- -- 89
2019-11-22 19:00:00 15.6 21 Sur 32 Sur 0 -- -- 87
2019-11-22 18:00:00 15.2 15 Sur 24 Sur 0 -- -- 85
2019-11-22 17:00:00 15.3 14 Sur 27 Sur 0 -- -- 85
2019-11-22 16:00:00 15.9 17 Sur 27 Sur 0 -- -- 83
2019-11-22 15:00:00 15.2 16 Sur 39 Sur 0 -- -- 83
2019-11-22 14:00:00 15.8 25 Sur 38 Sur 0 -- -- 79
2019-11-22 13:00:00 15.5 21 Sur 32 Sudoeste 0 -- -- 81
2019-11-22 12:00:00 15.4 13 Sudoeste 26 Sudoeste 0 -- -- 79
2019-11-22 11:00:00 14.6 11 Sudoeste 21 Sudoeste 0 -- -- 86
2019-11-22 10:00:00 13.3 6 Sudoeste 9 Oeste 0 -- -- 84
2019-11-22 09:00:00 12.2 2 Sudoeste 8 Oeste 0 -- -- 83
2019-11-22 08:00:00 10.9 3 Oeste 5 Oeste 0 -- -- 81
2019-11-22 07:00:00 9.4 0 Calma 8 Noroeste 0 -- -- 77
2019-11-22 06:00:00 7.8 0 Calma 6 Noroeste 0 -- -- 79
2019-11-22 05:00:00 7.9 0 Calma 6 Noroeste 0 -- -- 74
2019-11-22 04:00:00 8.5 4 Oeste 13 Noroeste 0 -- -- 70
2019-11-22 03:00:00 9.4 8 Noroeste 10 Noroeste 0 -- -- 69
2019-11-22 02:00:00 9.1 6 Noroeste 8 Noroeste 0 -- -- 72
2019-11-22 01:00:00 9.3 3 Oeste 10 Noroeste 0 -- -- 70
2019-11-22 00:00:00 9 5 Noroeste 6 Noroeste 0 -- -- 71
2019-11-21 23:00:00 9.7 2 Noroeste 10 Oeste 0 -- -- 68
2019-11-21 22:00:00 10.2 4 Oeste 10 Sudoeste 0 -- -- 67
2019-11-21 21:00:00 10.9 5 Oeste 18 Oeste 0 -- -- 63
2019-11-21 20:00:00 12 12 Oeste 21 Oeste 0 -- -- 59
2019-11-21 19:00:00 12.1 5 Oeste 15 Oeste 0 -- -- 63
2019-11-21 18:00:00 12.4 3 Oeste 13 Sudoeste 0 -- -- 65
2019-11-21 17:00:00 13.7 3 Oeste 24 Sur 0 -- -- 64
2019-11-21 16:00:00 15.1 18 Sur 28 Sur 0 -- -- 61
2019-11-21 15:00:00 15.4 17 Sur 29 Sur 0 -- -- 60
2019-11-21 14:00:00 15.6 19 Sur 34 Sur 0 -- -- 61
2019-11-21 13:00:00 15.5 20 Sudoeste 34 Sur 0 -- -- 59
2019-11-21 12:00:00 14.9 18 Sur 30 Sudoeste 0 -- -- 68
2019-11-21 11:00:00 14.2 7 Sudoeste 18 Sudoeste 0 -- -- 67
2019-11-21 10:00:00 12.6 8 Oeste 12 Sudoeste 0 -- -- 69
2019-11-21 09:00:00 10.6 7 Oeste 14 Oeste 0 -- -- 77
2019-11-21 08:00:00 -- -- -- -- -- -- -- -- --
2019-11-21 07:00:00 -- -- -- -- -- -- -- -- --
2019-11-21 06:00:00 -- -- -- -- -- -- -- -- --
2019-11-21 05:00:00 -- -- -- -- -- -- -- -- --
2019-11-21 04:00:00 -- -- -- -- -- -- -- -- --
2019-11-21 03:00:00 -- -- -- -- -- -- -- -- --
2019-11-21 02:00:00 -- -- -- -- -- -- -- -- --
2019-11-21 01:00:00 -- -- -- -- -- -- -- -- --
2019-11-21 00:00:00 -- -- -- -- -- -- -- -- --
2019-11-20 23:00:00 -- -- -- -- -- -- -- -- --
2019-11-20 22:00:00 -- -- -- -- -- -- -- -- --
2019-11-20 21:00:00 10.8 4 Sudoeste 14 Sudoeste 0 -- -- 72
2019-11-20 20:00:00 10.9 6 Sudoeste 12 Sudoeste 0 -- -- 72
2019-11-20 19:00:00 11.2 7 Sudoeste 12 Sudoeste 0 -- -- 71
2019-11-20 18:00:00 11.7 6 Sudoeste 15 Sudoeste 0 -- -- 70
2019-11-20 17:00:00 12.4 11 Sudoeste 24 Sur 0 -- -- 69
2019-11-20 16:00:00 13.2 17 Sur 32 Sudoeste 0 -- -- 67
2019-11-20 15:00:00 13.9 23 Sur 36 Sur 0 -- -- 65
2019-11-20 14:00:00 14.4 19 Sur 31 Sur 0 -- -- 64
2019-11-20 13:00:00 14.1 19 Sur 28 Sur 0 -- -- 63
2019-11-20 12:00:00 13 9 Sur 15 Sur 0 -- -- 65
2019-11-20 11:00:00 10.1 6 Oeste 14 Sudoeste 0 -- -- 66
2019-11-20 10:00:00 6.6 2 Oeste 7 Sudoeste 0 -- -- 79
2019-11-20 09:00:00 5 6 Oeste 12 Oeste 0 -- -- 86
2019-11-20 08:00:00 2.2 3 Oeste 8 Oeste 0 -- -- 88
2019-11-20 07:00:00 2.9 6 Oeste 17 Noroeste 0 -- -- 85
2019-11-20 06:00:00 4.7 8 Noroeste 23 Noroeste 0 -- -- 86
2019-11-20 05:00:00 3 4 Oeste 9 Oeste 0 -- -- 89
2019-11-20 04:00:00 3.8 6 Oeste 11 Noroeste 0 -- -- 87
2019-11-20 03:00:00 3.8 4 Oeste 9 Oeste 0 -- -- 87
2019-11-20 02:00:00 4.2 5 Oeste 10 Norte 0 -- -- 87
2019-11-20 01:00:00 3.9 3 Oeste 8 Sudoeste 0 -- -- 85
2019-11-20 00:00:00 4.4 3 Oeste 11 Oeste 0 -- -- 82
2019-11-19 23:00:00 5.7 5 Noroeste 11 Norte 0 -- -- 74
2019-11-19 22:00:00 6.9 6 Noroeste 12 Oeste 0 -- -- 69
2019-11-19 21:00:00 7.5 8 Noroeste 18 Noroeste 0 -- -- 66
2019-11-19 20:00:00 8.5 10 Noroeste 17 Noroeste 0 -- -- 62
2019-11-19 19:00:00 9 7 Noroeste 10 Noroeste 0 -- -- 65
2019-11-19 18:00:00 9.5 4 Noroeste 11 Noroeste 0 -- -- 62
2019-11-19 17:00:00 11.9 4 Noroeste 8 Noroeste 0 -- -- 52
2019-11-19 16:00:00 13.2 4 Oeste 14 Noroeste 0 -- -- 45
2019-11-19 15:00:00 13.3 9 Noroeste 19 Noroeste 0 -- -- 42
2019-11-19 14:00:00 13.9 9 Norte 26 Noroeste 0 -- -- 41
2019-11-19 13:00:00 13.4 8 Noroeste 27 Noroeste 0 -- -- 42
2019-11-19 12:00:00 12.4 11 Noroeste 25 Norte 0 -- -- 44
2019-11-19 11:00:00 11.3 10 Noroeste 27 Noroeste 0 -- -- 47
2019-11-19 10:00:00 9.8 11 Noroeste 31 Noroeste 0 -- -- 48
2019-11-19 09:00:00 7.8 9 Noroeste 24 Noroeste 0 -- -- 55
2019-11-19 08:00:00 6.2 7 Noroeste 27 Noroeste 0 -- -- 59
2019-11-19 07:00:00 5.8 8 Noroeste 18 Noroeste 0 -- -- 64
2019-11-19 06:00:00 3.2 6 Oeste 11 Oeste 0 -- -- 77
2019-11-19 05:00:00 3.9 3 Sudoeste 13 Noroeste 0 -- -- 71
2019-11-19 04:00:00 4.3 6 Noroeste 10 Noroeste 0 -- -- 73
2019-11-19 03:00:00 4.5 5 Noroeste 14 Oeste 0 -- -- 71
2019-11-19 02:00:00 5.9 7 Noroeste 17 Noroeste 0 -- -- 65
2019-11-19 01:00:00 6.8 9 Noroeste 23 Norte 0 -- -- 62
2019-11-19 00:00:00 8.7 9 Noroeste 27 Noroeste 0 -- -- 56
2019-11-18 23:00:00 9.1 10 Noroeste 33 Norte 0 -- -- 54
2019-11-18 22:00:00 9.2 14 Noroeste 34 Norte 0 -- -- 54
2019-11-18 21:00:00 9.6 17 Noroeste 38 Noroeste 0 -- -- 55
2019-11-18 20:00:00 10 15 Noroeste 40 Noroeste 0 -- -- 53
2019-11-18 19:00:00 10.3 17 Noroeste 37 Norte 0 -- -- 51
2019-11-18 18:00:00 10.1 11 Noroeste 36 Norte 0 -- -- 52
2019-11-18 17:00:00 11.2 10 Noroeste 26 Noroeste 0 -- -- 51
2019-11-18 16:00:00 12.6 5 Noroeste 32 Norte 0 -- -- 48
2019-11-18 15:00:00 12.5 14 Noroeste 36 Noroeste 0 -- -- 50
2019-11-18 14:00:00 11.9 20 Noroeste 43 Noroeste 0 -- -- 55
2019-11-18 13:00:00 12.5 13 Noroeste 32 Norte 0 -- -- 55
2019-11-18 12:00:00 12.2 13 Noroeste 28 Nordeste 0 -- -- 59
2019-11-18 11:00:00 11.3 8 Noroeste 36 Nordeste 0 -- -- 65
2019-11-18 10:00:00 10.7 10 Noroeste 23 Noroeste 0 -- -- 75
2019-11-18 09:00:00 10.8 8 Norte 23 Noroeste 0 -- -- 79
2019-11-18 08:00:00 9.3 6 Noroeste 22 Oeste 0 -- -- 81
2019-11-18 07:00:00 11 11 Nordeste 27 Este 0 -- -- 80
2019-11-18 06:00:00 11.1 6 Noroeste 23 Noroeste 0 -- -- 76
2019-11-18 05:00:00 11.1 6 Norte 22 Norte 0 -- -- 75
2019-11-18 04:00:00 10.3 9 Noroeste 24 Norte 0 -- -- 82
2019-11-18 03:00:00 8.7 10 Noroeste 22 Noroeste 0 -- -- 79
2019-11-18 02:00:00 8 12 Noroeste 20 Noroeste 0 -- -- 81
2019-11-18 01:00:00 6.3 5 Oeste 13 Sudoeste 0 -- -- 85
2019-11-18 00:00:00 7.9 11 Noroeste 20 Norte 0 -- -- 80
2019-11-17 23:00:00 8.2 12 Noroeste 21 Noroeste 0 -- -- 78
2019-11-17 22:00:00 6.8 5 Oeste 11 Oeste 0 -- -- 81
2019-11-17 21:00:00 8.5 6 Noroeste 9 Noroeste 0 -- -- 73
2019-11-17 20:00:00 9.3 5 Norte 8 Noroeste 0 -- -- 76
2019-11-17 19:00:00 10.1 4 Noroeste 6 Noroeste 0 -- -- 76
2019-11-17 18:00:00 10.8 5 Noroeste 7 Noroeste 0 -- -- 73
2019-11-17 17:00:00 12.1 3 Sudoeste 13 Sudoeste 0 -- -- 69
2019-11-17 16:00:00 12.6 8 Sudoeste 17 Sur 0 -- -- 67
2019-11-17 15:00:00 14.2 5 Sudeste 12 Sudoeste 0 -- -- 58
2019-11-17 14:00:00 13.5 5 Sudoeste 13 Sudoeste 0 -- -- 61
2019-11-17 13:00:00 12 4 Sudeste 8 Sudoeste 0 -- -- 65
2019-11-17 12:00:00 9.4 3 Oeste 13 Noroeste 0 -- -- 76
2019-11-17 11:00:00 6.8 7 Oeste 15 Oeste 0 -- -- 82
2019-11-17 10:00:00 5.9 8 Oeste 18 Oeste 0 -- -- 83
2019-11-17 09:00:00 5.2 10 Oeste 18 Noroeste 0 -- -- 82
2019-11-17 08:00:00 3.5 6 Oeste 18 Noroeste 0 -- -- 83
2019-11-17 07:00:00 4.2 5 Oeste 12 Noroeste 0 -- -- 83
2019-11-17 06:00:00 5.7 8 Noroeste 17 Norte 0 -- -- 78
2019-11-17 05:00:00 5.6 6 Noroeste 14 Noroeste 0 -- -- 83
2019-11-17 04:00:00 4.9 2 Noroeste 9 Oeste 0 -- -- 86
2019-11-17 03:00:00 5.5 6 Oeste 15 Oeste 0 -- -- 85
2019-11-17 02:00:00 6 8 Oeste 18 Noroeste 0 -- -- 83
2019-11-17 01:00:00 6.3 9 Noroeste 18 Noroeste 0 -- -- 82
2019-11-17 00:00:00 6.4 10 Noroeste 19 Noroeste 0 -- -- 83
2019-11-16 23:00:00 6.9 11 Noroeste 22 Noroeste 0 -- -- 82
2019-11-16 22:00:00 8.1 9 Noroeste 18 Noroeste 0 -- -- 82
2019-11-16 21:00:00 8.3 11 Norte 18 Noroeste 0 -- -- 78
2019-11-16 20:00:00 8.3 6 Norte 9 Noroeste 0 -- -- 78
2019-11-16 19:00:00 8.7 7 Noroeste 9 Noroeste 0 -- -- 76
2019-11-16 18:00:00 9.6 6 Noroeste 9 Noroeste 0 -- -- 72
2019-11-16 17:00:00 11.9 2 Este 14 Este 0 -- -- 61
2019-11-16 16:00:00 12.7 8 Sudeste 20 Este 0 -- -- 58
2019-11-16 15:00:00 12.7 9 Este 18 Este 0 -- -- 57
2019-11-16 14:00:00 12.4 8 Sudeste 16 Sudeste 0 -- -- 56
2019-11-16 13:00:00 12 7 Este 17 Este 0 -- -- 57
2019-11-16 12:00:00 11.5 8 Este 15 Sudeste 0 -- -- 61
2019-11-16 11:00:00 10.7 3 Sudoeste 7 Sudoeste 0 -- -- 68
2019-11-16 10:00:00 6.9 5 Oeste 12 Oeste 0 -- -- 84
2019-11-16 09:00:00 4.3 4 Oeste 14 Oeste 0 -- -- 89
2019-11-16 08:00:00 3.7 6 Oeste 14 Oeste 0 -- -- 90
2019-11-16 07:00:00 3.3 4 Oeste 11 Oeste 0 -- -- 88
2019-11-16 06:00:00 4.1 8 Oeste 15 Oeste 0 -- -- 87
2019-11-16 05:00:00 5 4 Oeste 17 Norte 0 -- -- 83
2019-11-16 04:00:00 5.5 8 Noroeste 18 Noroeste 0 -- -- 81
2019-11-16 03:00:00 5.3 12 Noroeste 22 Noroeste 0 -- -- 81
2019-11-16 02:00:00 5.9 8 Noroeste 17 Norte 0 -- -- 79
2019-11-16 01:00:00 6.8 7 Noroeste 15 Noroeste 0 -- -- 76
2019-11-16 00:00:00 9.2 8 Noroeste 26 Nordeste 0 -- -- 68
2019-11-15 23:00:00 9.4 11 Norte 25 Noroeste 0 -- -- 72
2019-11-15 22:00:00 9.1 12 Noroeste 26 Noroeste 0 -- -- 75
2019-11-15 21:00:00 7.4 10 Noroeste 19 Noroeste 0 -- -- 84
2019-11-15 20:00:00 7.9 6 Oeste 12 Oeste 0 -- -- 84
2019-11-15 19:00:00 8.5 8 Noroeste 11 Noroeste 0 -- -- 83
2019-11-15 18:00:00 9.3 6 Noroeste 8 Noroeste 0 -- -- 81
2019-11-15 17:00:00 11.6 5 Sudoeste 17 Sur 0 -- -- 71
2019-11-15 16:00:00 10.8 5 Sudoeste 9 Sudoeste 0 -- -- 80
2019-11-15 15:00:00 10.1 3 Sudoeste 10 Sudoeste 0 -- -- 78
2019-11-15 14:00:00 9.6 5 Oeste 13 Sudoeste 0 -- -- 81
2019-11-15 13:00:00 9.2 5 Sudoeste 14 Oeste 0 -- -- 82
2019-11-15 12:00:00 9.2 6 Sudoeste 19 Nordeste 0 -- -- 81
2019-11-15 11:00:00 9.6 5 Nordeste 19 Este 0 -- -- 78
2019-11-15 10:00:00 6.7 6 Nordeste 13 Oeste 0 -- -- 93
2019-11-15 09:00:00 4.4 6 Oeste 15 Noroeste 0 -- -- 92
2019-11-15 08:00:00 3.5 6 Oeste 21 Noroeste 0 -- -- 91
2019-11-15 07:00:00 4.1 9 Noroeste 20 Noroeste 0 -- -- 92
2019-11-15 06:00:00 4.3 6 Oeste 20 Noroeste 0 -- -- 91
2019-11-15 05:00:00 4.5 12 Noroeste 22 Noroeste 0 -- -- 91
2019-11-15 04:00:00 4.3 4 Noroeste 13 Noroeste 0 -- -- 92
2019-11-15 03:00:00 4 5 Oeste 17 Noroeste 0 -- -- 89
2019-11-15 02:00:00 5.6 11 Noroeste 18 Noroeste 0 -- -- 89
2019-11-15 01:00:00 5.8 5 Noroeste 10 Noroeste 0 -- -- 88
2019-11-15 00:00:00 5.6 2 Noroeste 10 Oeste 0 -- -- 89
2019-11-14 23:00:00 5.6 4 Noroeste 9 Noroeste 0 -- -- 89
2019-11-14 22:00:00 5.1 4 Noroeste 9 Noroeste 0 -- -- 88
2019-11-14 21:00:00 6.5 3 Norte 17 Norte 0 -- -- 84
2019-11-14 20:00:00 7 9 Noroeste 21 Oeste 0 -- -- 86
2019-11-14 19:00:00 7.1 4 Noroeste 14 Noroeste 0.2 -- -- 88
2019-11-14 18:00:00 7.3 5 Noroeste 19 Noroeste 0 -- -- 88
2019-11-14 17:00:00 7.9 5 Oeste 12 Oeste 0 -- -- 88
2019-11-14 16:00:00 8.3 8 Noroeste 17 Oeste 0.4 -- -- 87
2019-11-14 15:00:00 8.5 7 Noroeste 16 Noroeste 3.4 -- -- 86
2019-11-14 14:00:00 9.3 7 Noroeste 21 Noroeste 1.2 -- -- 81
2019-11-14 13:00:00 11.9 5 Noroeste 24 Norte 0 -- -- 66
2019-11-14 12:00:00 12.6 5 Noroeste 24 Noroeste 0 -- -- 71
2019-11-14 11:00:00 12.2 5 Noroeste 18 Noroeste 0 -- -- 72
2019-11-14 10:00:00 13.1 6 Noroeste 12 Noroeste 0 -- -- 78
2019-11-14 09:00:00 12.6 5 Oeste 18 Sudoeste 0 -- -- 80
2019-11-14 08:00:00 12.7 9 Sudoeste 18 Sudoeste 0 -- -- 81
2019-11-14 07:00:00 12.7 15 Sudoeste 21 Sudoeste 0 -- -- 72
2019-11-14 06:00:00 12.5 5 Sudoeste 14 Sudoeste 0 -- -- 68
2019-11-14 05:00:00 11.6 7 Sudoeste 19 Sudoeste 0 -- -- 65
2019-11-14 04:00:00 10.6 8 Oeste 14 Oeste 0 -- -- 73
2019-11-14 03:00:00 10.1 5 Oeste 14 Oeste 0 -- -- 72
2019-11-14 02:00:00 13.3 3 Noroeste 19 Sudeste 0 -- -- 69
2019-11-14 01:00:00 11.3 0 Calma 6 Sudoeste 0 -- -- 65
2019-11-14 00:00:00 11.3 0 Calma 8 Noroeste 0 -- -- 60
2019-11-13 23:00:00 11.1 0 Calma 6 Noroeste 0 -- -- 59
2019-11-13 22:00:00 11.7 3 Oeste 13 Noroeste 0 -- -- 56
2019-11-13 21:00:00 12.4 6 Noroeste 14 Noroeste 0 -- -- 53
2019-11-13 20:00:00 12.4 7 Noroeste 22 Noroeste 0 -- -- 54
2019-11-13 19:00:00 12.9 11 Noroeste 24 Noroeste 0 -- -- 52
2019-11-13 18:00:00 12.7 10 Noroeste 28 Noroeste 0 -- -- 57
2019-11-13 17:00:00 13.4 12 Noroeste 32 Noroeste 0 -- -- 55
2019-11-13 16:00:00 14.1 9 Noroeste 26 Norte 0 -- -- 56
2019-11-13 15:00:00 15.5 9 Noroeste 22 Noroeste 0 -- -- 54
2019-11-13 14:00:00 14.4 6 Noroeste 23 Norte 0 -- -- 58
2019-11-13 13:00:00 14.3 10 Norte 23 Nordeste 0 -- -- 57
2019-11-13 12:00:00 13.7 6 Noroeste 16 Oeste 0 -- -- 56
2019-11-13 11:00:00 12.7 9 Noroeste 19 Noroeste 0 -- -- 63
2019-11-13 10:00:00 12.3 10 Noroeste 16 Noroeste 0 -- -- 66
2019-11-13 09:00:00 10.3 6 Oeste 14 Oeste 0 -- -- 76
2019-11-13 08:00:00 9.1 7 Noroeste 13 Noroeste 0 -- -- 78
2019-11-13 07:00:00 7.3 3 Sudoeste 13 Noroeste 0 -- -- 82
2019-11-13 06:00:00 9 8 Noroeste 17 Noroeste 0 -- -- 75
2019-11-13 05:00:00 8.9 9 Noroeste 15 Noroeste 0 -- -- 76
2019-11-13 04:00:00 6.7 4 Oeste 13 Noroeste 0 -- -- 82
2019-11-13 03:00:00 7.7 5 Noroeste 9 Noroeste 0 -- -- 82
2019-11-13 02:00:00 8 2 Oeste 16 Noroeste 0 -- -- 76
2019-11-13 01:00:00 10.9 14 Noroeste 18 Norte 0 -- -- 69
2019-11-13 00:00:00 10.5 10 Noroeste 18 Noroeste 0 -- -- 67
2019-11-12 23:00:00 10.6 9 Noroeste 20 Oeste 0 -- -- 70
2019-11-12 22:00:00 10.9 8 Noroeste 18 Noroeste 0 -- -- 68
2019-11-12 21:00:00 11.3 2 Oeste 14 Noroeste 0 -- -- 64
2019-11-12 20:00:00 12.1 5 Noroeste 12 Noroeste 0 -- -- 62
2019-11-12 19:00:00 13.2 0 Calma 10 Nordeste 0 -- -- 56
2019-11-12 18:00:00 13.7 4 Norte 10 Oeste 0 -- -- 58
2019-11-12 17:00:00 16.5 7 Oeste 17 Oeste 0 -- -- 48
2019-11-12 16:00:00 17.8 8 Oeste 17 Oeste 0 -- -- 35
2019-11-12 15:00:00 17.8 8 Noroeste 31 Oeste 0 -- -- 36
2019-11-12 14:00:00 17.6 13 Noroeste 34 Noroeste 0 -- -- 36
2019-11-12 13:00:00 16.9 11 Noroeste 39 Noroeste 0 -- -- 39
2019-11-12 12:00:00 16.6 8 Noroeste 35 Nordeste 0 -- -- 39
2019-11-12 11:00:00 15.5 16 Norte 33 Noroeste 0 -- -- 45
2019-11-12 10:00:00 14.5 13 Noroeste 37 Norte 0 -- -- 44
2019-11-12 09:00:00 12.9 16 Noroeste 35 Noroeste 0 -- -- 51
2019-11-12 08:00:00 12.7 18 Noroeste 40 Noroeste 0 -- -- 49
2019-11-12 07:00:00 12.2 15 Noroeste 45 Noroeste 0 -- -- 51
2019-11-12 06:00:00 12 11 Noroeste 39 Nordeste 0 -- -- 53
2019-11-12 05:00:00 12.2 14 Norte 43 Nordeste 0 -- -- 54
2019-11-12 04:00:00 12.1 18 Nordeste 66 Norte 0 -- -- 55
2019-11-12 03:00:00 12 14 Norte 53 Norte 0 -- -- 53
2019-11-12 02:00:00 12 15 Noroeste 41 Noroeste 0 -- -- 56
2019-11-12 01:00:00 12 12 Noroeste 41 Noroeste 0 -- -- 58
2019-11-12 00:00:00 12.6 13 Noroeste 63 Noroeste 0 -- -- 51
2019-11-11 23:00:00 13.6 18 Noroeste 46 Noroeste 0 -- -- 39
2019-11-11 22:00:00 14.1 21 Noroeste 43 Noroeste 0 -- -- 33
2019-11-11 21:00:00 13.3 10 Noroeste 23 Noroeste 0 -- -- 61
2019-11-11 20:00:00 13 8 Noroeste 16 Noroeste 0 -- -- 58
2019-11-11 19:00:00 12.2 5 Noroeste 12 Oeste 0 -- -- 60
2019-11-11 18:00:00 13.3 5 Noroeste 12 Norte 0 -- -- 59
2019-11-11 17:00:00 14.8 5 Norte 25 Norte 0 -- -- 55
2019-11-11 16:00:00 15.9 8 Norte 32 Nordeste 0 -- -- 53
2019-11-11 15:00:00 16.2 7 Norte 29 Este 0 -- -- 50
2019-11-11 14:00:00 16.1 8 Nordeste 25 Nordeste 0 -- -- 46
2019-11-11 13:00:00 16.1 7 Sudeste 28 Este 0 -- -- 43
2019-11-11 12:00:00 14.8 9 Norte 24 Norte 0 -- -- 45
2019-11-11 11:00:00 13.4 10 Norte 29 Noroeste 0 -- -- 52
2019-11-11 10:00:00 12.8 9 Noroeste 32 Norte 0 -- -- 49
2019-11-11 09:00:00 14 8 Norte 27 Nordeste 0 -- -- 46
2019-11-11 08:00:00 12.6 9 Noroeste 27 Noroeste 0 -- -- 40
2019-11-11 07:00:00 12.3 14 Noroeste 34 Norte 0 -- -- 44
2019-11-11 06:00:00 12.4 10 Noroeste 36 Noroeste 0 -- -- 41
2019-11-11 05:00:00 12 14 Noroeste 44 Noroeste 0 -- -- 43
2019-11-11 04:00:00 11.5 19 Noroeste 44 Noroeste 0 -- -- 48
2019-11-11 03:00:00 11.6 19 Noroeste 49 Oeste 0 -- -- 49
2019-11-11 02:00:00 11.3 17 Noroeste 39 Oeste 0 -- -- 50
2019-11-11 01:00:00 11.1 20 Noroeste 45 Noroeste 0 -- -- 53
2019-11-11 00:00:00 10.9 15 Noroeste 39 Noroeste 0 -- -- 56